createdAt,value
2019-03-06T00:01:26.830Z,99071.16
2019-03-06T00:03:58.965Z,99071.33
2019-03-06T00:06:30.734Z,99076.14
2019-03-06T00:09:02.532Z,99072.48
2019-03-06T00:11:34.332Z,99069.75
2019-03-06T00:14:06.453Z,99064.33
2019-03-06T00:16:38.046Z,99072.23
2019-03-06T00:19:09.880Z,99065.81
2019-03-06T00:21:41.659Z,99066.83
2019-03-06T00:24:13.800Z,99064.16
2019-03-06T00:26:45.746Z,99058.77
2019-03-06T00:29:17.621Z,99066.69
2019-03-06T00:31:49.464Z,99073.17
2019-03-06T00:34:21.336Z,99075.38
2019-03-06T00:36:53.053Z,99068.91
2019-03-06T00:39:26.875Z,99073.37
2019-03-06T00:41:58.699Z,99078.23
2019-03-06T00:44:30.369Z,99068.84
2019-03-06T00:47:02.138Z,99065.66
2019-03-06T00:49:33.825Z,99070.57
2019-03-06T00:52:05.649Z,99065.39
2019-03-06T00:54:37.409Z,99066.90
2019-03-06T00:57:09.460Z,99070.86
2019-03-06T00:59:41.380Z,99068.97
2019-03-06T01:02:13.074Z,99070.84
2019-03-06T01:04:44.658Z,99074.45
2019-03-06T01:07:16.384Z,99078.28
2019-03-06T01:09:48.253Z,99080.98
2019-03-06T01:12:20.249Z,99082.19
2019-03-06T01:14:51.725Z,99084.45
2019-03-06T01:17:23.650Z,99084.95
2019-03-06T01:19:55.263Z,99073.02
2019-03-06T01:22:26.967Z,99076.54
2019-03-06T01:24:58.572Z,99077.06
2019-03-06T01:27:30.548Z,99076.45
2019-03-06T01:30:02.354Z,99068.23
2019-03-06T01:32:34.204Z,99071.48
2019-03-06T01:35:30.262Z,99077.19
2019-03-06T01:38:08.881Z,99064.10
2019-03-06T01:40:59.180Z,99063.05
2019-03-06T01:43:45.176Z,99074.11
2019-03-06T01:46:16.927Z,99065.27
2019-03-06T01:48:48.659Z,99063.13
2019-03-06T01:51:20.215Z,99061.99
2019-03-06T01:53:52.053Z,99057.63
2019-03-06T01:56:23.744Z,99053.89
2019-03-06T01:58:55.441Z,99048.34
2019-03-06T02:01:27.087Z,99045.46
2019-03-06T02:03:58.869Z,99046.52
2019-03-06T02:06:30.596Z,99048.74
2019-03-06T02:09:02.110Z,99046.92
2019-03-06T02:11:34.172Z,99041.05
2019-03-06T02:14:06.059Z,99041.89
2019-03-06T02:16:37.738Z,99043.11
2019-03-06T02:19:10.408Z,99041.68
2019-03-06T02:21:42.058Z,99040.48
2019-03-06T02:24:14.317Z,99035.14
2019-03-06T02:26:46.098Z,99030.72
2019-03-06T02:29:18.949Z,99033.09
2019-03-06T02:31:50.562Z,99029.97
2019-03-06T02:34:23.010Z,99027.61
2019-03-06T02:36:54.611Z,99030.42
2019-03-06T02:39:26.680Z,99028.89
2019-03-06T02:41:58.330Z,99034.70
2019-03-06T02:44:30.142Z,99023.35
2019-03-06T02:47:02.091Z,99023.64
2019-03-06T02:49:33.886Z,99021.27
2019-03-06T02:52:05.484Z,99020.44
2019-03-06T02:54:37.181Z,99028.98
2019-03-06T02:57:08.795Z,99023.95
2019-03-06T03:00:05.552Z,99022.35
2019-03-06T03:02:49.301Z,99028.03
2019-03-06T03:05:26.281Z,99022.31
2019-03-06T03:07:58.039Z,99019.95
2019-03-06T03:10:29.582Z,99017.35
2019-03-06T03:13:01.514Z,99010.41
2019-03-06T03:15:33.183Z,99022.94
2019-03-06T03:18:04.834Z,99025.08
2019-03-06T03:20:36.432Z,99017.30
2019-03-06T03:23:08.195Z,99017.75
2019-03-06T03:25:40.035Z,99026.52
2019-03-06T03:28:11.862Z,99024.77
2019-03-06T03:30:43.533Z,99030.27
2019-03-06T03:33:15.229Z,99030.72
2019-03-06T03:35:47.086Z,99027.67
2019-03-06T03:38:18.778Z,99025.67
2019-03-06T03:40:50.693Z,99026.20
2019-03-06T03:43:23.656Z,99035.59
2019-03-06T03:45:55.768Z,99035.06
2019-03-06T03:48:27.358Z,99027.14
2019-03-06T03:50:59.661Z,99022.31
2019-03-06T03:53:32.315Z,99035.83
2019-03-06T03:56:04.183Z,99040.95
2019-03-06T03:58:36.002Z,99043.15
2019-03-06T04:01:08.011Z,99036.05
2019-03-06T04:03:39.616Z,99043.78
2019-03-06T04:06:11.420Z,99043.25
2019-03-06T04:08:43.010Z,99044.32
2019-03-06T04:11:14.762Z,99043.30
2019-03-06T04:13:46.559Z,99049.12
2019-03-06T04:16:18.177Z,99049.27
2019-03-06T04:18:50.060Z,99053.92
2019-03-06T04:21:21.793Z,99053.16
2019-03-06T04:23:53.322Z,99047.43
2019-03-06T04:26:25.466Z,99054.23
2019-03-06T04:28:57.104Z,99060.58
2019-03-06T04:31:28.627Z,99059.20
2019-03-06T04:34:00.274Z,99064.22
2019-03-06T04:36:31.899Z,99061.09
2019-03-06T04:39:06.274Z,99060.86
2019-03-06T04:41:37.890Z,99061.17
2019-03-06T04:44:09.391Z,99062.55
2019-03-06T04:46:41.293Z,99071.47
2019-03-06T04:49:12.982Z,99066.05
2019-03-06T04:51:44.582Z,99066.14
2019-03-06T04:54:16.038Z,99064.39
2019-03-06T04:56:47.623Z,99070.48
2019-03-06T04:59:19.561Z,99067.80
2019-03-06T05:01:51.252Z,99070.56
2019-03-06T05:04:22.733Z,99067.44
2019-03-06T05:06:54.451Z,99068.64
2019-03-06T05:09:26.007Z,99069.22
2019-03-06T05:11:57.844Z,99073.74
2019-03-06T05:14:29.941Z,99071.69
2019-03-06T05:17:29.632Z,99071.37
2019-03-06T05:20:01.364Z,99075.12
2019-03-06T05:22:32.852Z,99074.38
2019-03-06T05:25:04.653Z,99074.28
2019-03-06T05:27:36.280Z,99077.28
2019-03-06T05:30:08.223Z,99071.55
2019-03-06T05:32:40.652Z,99074.28
2019-03-06T05:36:13.817Z,99071.69
2019-03-06T05:39:04.284Z,99074.14
2019-03-06T05:41:36.184Z,99082.21
2019-03-06T05:44:08.401Z,99081.76
2019-03-06T05:46:40.192Z,99074.81
2019-03-06T05:49:12.208Z,99076.96
2019-03-06T05:51:43.928Z,99083.28
2019-03-06T05:54:15.770Z,99078.84
2019-03-06T05:56:48.527Z,99084.44
2019-03-06T05:59:20.635Z,99094.11
2019-03-06T06:01:52.198Z,99085.78
2019-03-06T06:04:24.949Z,99083.94
2019-03-06T06:06:56.934Z,99093.65
2019-03-06T06:09:29.308Z,99094.27
2019-03-06T06:12:01.112Z,99086.14
2019-03-06T06:14:32.808Z,99093.98
2019-03-06T06:17:04.505Z,99101.09
2019-03-06T06:19:35.965Z,99089.45
2019-03-06T06:22:19.041Z,99090.97
2019-03-06T06:24:51.074Z,99098.05
2019-03-06T06:27:23.382Z,99094.36
2019-03-06T06:29:55.162Z,99102.25
2019-03-06T06:32:26.920Z,99106.78
2019-03-06T06:34:58.632Z,99104.76
2019-03-06T06:37:30.266Z,99109.39
2019-03-06T06:40:01.771Z,99114.10
2019-03-06T06:42:33.368Z,99113.86
2019-03-06T06:45:05.346Z,99119.63
2019-03-06T06:47:37.104Z,99111.88
2019-03-06T06:50:09.153Z,99112.30
2019-03-06T06:53:34.544Z,99114.61
2019-03-06T06:56:49.703Z,99114.63
2019-03-06T06:59:51.359Z,99112.83
2019-03-06T07:04:02.787Z,99123.13
2019-03-06T07:07:08.489Z,99128.80
2019-03-06T07:09:58.543Z,99139.09
2019-03-06T07:12:41.170Z,99138.77
2019-03-06T07:15:33.213Z,99146.53
2019-03-06T07:18:17.378Z,99149.03
2019-03-06T07:21:18.791Z,99149.02
2019-03-06T07:24:07.420Z,99152.68
2019-03-06T07:26:57.851Z,99149.59
2019-03-06T07:29:45.056Z,99161.82
2019-03-06T07:32:39.137Z,99165.73
2019-03-06T07:36:08.370Z,99158.92
2019-03-06T07:38:40.076Z,99171.47
2019-03-06T07:41:29.325Z,99164.80
2019-03-06T07:44:30.145Z,99167.45
2019-03-06T07:47:36.681Z,99167.48
2019-03-06T07:50:31.365Z,99169.19
2019-03-06T07:53:59.296Z,99174.95
2019-03-06T07:56:35.079Z,99177.10
2019-03-06T07:59:06.867Z,99178.17
2019-03-06T08:01:43.756Z,99178.48
2019-03-06T08:04:18.926Z,99181.78
2019-03-06T08:07:09.496Z,99179.14
2019-03-06T08:09:41.270Z,99179.42
2019-03-06T08:12:25.079Z,99184.89
2019-03-06T08:15:15.508Z,99181.48
2019-03-06T08:18:21.841Z,99181.12
2019-03-06T08:21:10.894Z,99180.08
2019-03-06T08:23:58.504Z,99180.53
2019-03-06T08:26:30.223Z,99173.62
2019-03-06T08:29:02.227Z,99180.05
2019-03-06T08:31:43.969Z,99182.95
2019-03-06T08:34:16.007Z,99168.91
2019-03-06T08:36:47.861Z,99170.88
2019-03-06T08:39:24.400Z,99173.91
2019-03-06T08:41:56.377Z,99171.92
2019-03-06T08:44:28.236Z,99170.78
2019-03-06T08:47:18.266Z,99169.64
2019-03-06T08:49:59.009Z,99164.34
2019-03-06T08:52:36.061Z,99155.84
2019-03-06T08:55:33.911Z,99159.31
2019-03-06T08:58:24.896Z,99153.17
2019-03-06T09:01:15.603Z,99163.73
2019-03-06T09:04:24.699Z,99164.25
2019-03-06T09:07:27.151Z,99162.78
2019-03-06T09:10:26.428Z,99156.14
2019-03-06T09:13:20.144Z,99158.11
2019-03-06T09:16:21.532Z,99156.16
2019-03-06T09:19:22.146Z,99158.79
2019-03-06T09:22:26.346Z,99155.56
2019-03-06T09:25:13.589Z,99157.41
2019-03-06T09:28:06.809Z,99157.72
2019-03-06T09:31:09.396Z,99152.34
2019-03-06T09:33:58.135Z,99168.98
2019-03-06T09:36:41.793Z,99166.03
2019-03-06T09:39:29.203Z,99173.45
2019-03-06T09:42:18.887Z,99159.17
2019-03-06T09:45:06.828Z,99163.50
2019-03-06T09:48:00.786Z,99161.97
2019-03-06T09:50:54.570Z,99159.31
2019-03-06T09:53:57.721Z,99160.52
2019-03-06T09:56:48.201Z,99170.05
2019-03-06T09:59:44.631Z,99166.45
2019-03-06T10:02:27.141Z,99159.44
2019-03-06T10:05:08.226Z,99165.05
2019-03-06T10:07:57.512Z,99160.44
2019-03-06T10:10:57.466Z,99166.00
2019-03-06T10:13:46.377Z,99147.00
2019-03-06T10:16:25.418Z,99152.64
2019-03-06T10:19:19.574Z,99144.31
2019-03-06T10:21:52.486Z,99144.52
2019-03-06T10:24:24.189Z,99152.50
2019-03-06T10:26:56.102Z,99151.82
2019-03-06T10:29:28.404Z,99144.59
2019-03-06T10:32:00.483Z,99148.87
2019-03-06T10:34:32.314Z,99160.80
2019-03-06T10:39:38.610Z,99142.22
2019-03-06T10:42:10.400Z,99152.20
2019-03-06T10:44:42.974Z,99151.88
2019-03-06T10:47:15.832Z,99152.77
2019-03-06T10:49:48.654Z,99141.16
2019-03-06T10:52:20.548Z,99137.75
2019-03-06T10:54:53.059Z,99146.87
2019-03-06T10:57:25.557Z,99135.53
2019-03-06T10:59:57.611Z,99133.89
2019-03-06T11:02:29.595Z,99136.51
2019-03-06T11:05:12.455Z,99122.61
2019-03-06T11:07:44.605Z,99124.28
2019-03-06T11:10:23.536Z,99117.46
2019-03-06T11:12:51.198Z,99115.67
2019-03-06T11:15:23.313Z,99122.22
2019-03-06T11:17:56.289Z,99118.80
2019-03-06T11:20:31.645Z,99113.74
2019-03-06T11:23:05.512Z,99102.75
2019-03-06T11:25:38.276Z,99110.70
2019-03-06T11:28:12.837Z,99119.23
2019-03-06T11:30:53.109Z,99098.73
2019-03-06T11:33:26.246Z,99110.81
2019-03-06T11:35:59.759Z,99091.70
2019-03-06T11:38:31.730Z,99095.12
2019-03-06T11:41:06.950Z,99082.73
2019-03-06T11:43:38.861Z,99091.98
2019-03-06T11:46:11.763Z,99087.19
2019-03-06T11:48:44.447Z,99070.48
2019-03-06T11:51:16.576Z,99072.09
2019-03-06T11:53:48.886Z,99074.47
2019-03-06T11:56:20.746Z,99065.63
2019-03-06T11:58:52.730Z,99062.73
2019-03-06T12:01:26.965Z,99066.06
2019-03-06T12:03:59.668Z,99064.59
2019-03-06T12:06:33.916Z,99058.84
2019-03-06T12:09:17.930Z,99060.02
2019-03-06T12:11:50.140Z,99054.23
2019-03-06T12:14:21.980Z,99040.14
2019-03-06T12:16:54.091Z,99044.09
2019-03-06T12:19:26.441Z,99033.31
2019-03-06T12:21:58.869Z,99030.58
2019-03-06T12:24:30.811Z,99036.86
2019-03-06T12:27:02.664Z,99038.11
2019-03-06T12:29:34.409Z,99040.57
2019-03-06T12:32:06.404Z,99038.63
2019-03-06T12:34:38.490Z,99025.33
2019-03-06T12:37:10.519Z,99024.70
2019-03-06T12:39:43.025Z,99024.67
2019-03-06T12:42:15.484Z,99016.25
2019-03-06T12:44:49.571Z,99002.52
2019-03-06T12:47:22.501Z,99008.34
2019-03-06T12:49:54.140Z,99010.87
2019-03-06T12:52:26.072Z,99000.56
2019-03-06T12:54:58.547Z,99001.23
2019-03-06T12:57:30.535Z,98998.12
2019-03-06T13:00:08.346Z,99002.25
2019-03-06T13:02:40.179Z,98984.04
2019-03-06T13:05:12.460Z,98981.95
2019-03-06T13:07:44.313Z,98984.44
2019-03-06T13:10:16.599Z,98966.52
2019-03-06T13:12:49.179Z,98977.84
2019-03-06T13:15:24.155Z,98959.23
2019-03-06T13:17:56.607Z,98964.87
2019-03-06T13:20:28.718Z,98964.56
2019-03-06T13:23:00.653Z,98961.77
2019-03-06T13:25:32.449Z,98955.55
2019-03-06T13:28:06.114Z,98940.02
2019-03-06T13:30:38.248Z,98929.05
2019-03-06T13:33:32.719Z,98944.39
2019-03-06T13:36:06.244Z,98927.48
2019-03-06T13:38:38.937Z,98915.97
2019-03-06T13:41:10.759Z,98916.28
2019-03-06T13:43:44.409Z,98913.46
2019-03-06T13:46:17.170Z,98911.89
2019-03-06T13:48:49.226Z,98913.03
2019-03-06T13:51:22.108Z,98904.50
2019-03-06T13:53:54.464Z,98904.83
2019-03-06T13:56:27.004Z,98892.54
2019-03-06T13:58:58.907Z,98885.59
2019-03-06T14:01:31.072Z,98882.50
2019-03-06T14:04:03.861Z,98876.68
2019-03-06T14:06:36.232Z,98879.72
2019-03-06T14:09:13.242Z,98870.47
2019-03-06T14:11:45.869Z,98886.25
2019-03-06T14:14:17.508Z,98885.56
2019-03-06T14:16:49.809Z,98872.32
2019-03-06T14:19:23.504Z,98863.34
2019-03-06T14:21:55.661Z,98873.36
2019-03-06T14:24:27.704Z,98872.91
2019-03-06T14:26:59.873Z,98868.62
2019-03-06T14:29:32.001Z,98867.66
2019-03-06T14:32:04.391Z,98867.49
2019-03-06T14:34:36.484Z,98871.01
2019-03-06T14:37:08.744Z,98861.73
2019-03-06T14:39:41.004Z,98863.98
2019-03-06T14:42:13.110Z,98859.73
2019-03-06T14:44:46.568Z,98861.33
2019-03-06T14:47:19.038Z,98854.80
2019-03-06T14:49:50.931Z,98844.89
2019-03-06T14:52:22.643Z,98841.06
2019-03-06T14:54:54.885Z,98840.23
2019-03-06T14:57:26.986Z,98833.59
2019-03-06T14:59:59.037Z,98832.39
2019-03-06T15:02:31.491Z,98839.25
2019-03-06T15:05:04.052Z,98839.25
2019-03-06T15:07:35.794Z,98831.31
2019-03-06T15:10:10.304Z,98833.08
2019-03-06T15:12:42.905Z,98833.81
2019-03-06T15:15:16.582Z,98824.88
2019-03-06T15:17:49.027Z,98818.86
2019-03-06T15:20:21.972Z,98819.91
2019-03-06T15:22:54.322Z,98813.98
2019-03-06T15:25:26.505Z,98811.69
2019-03-06T15:27:59.064Z,98814.37
2019-03-06T15:30:31.824Z,98804.93
2019-03-06T15:33:03.626Z,98820.76
2019-03-06T15:35:37.542Z,98819.45
2019-03-06T15:38:11.767Z,98825.02
2019-03-06T15:40:44.473Z,98818.07
2019-03-06T15:43:19.839Z,98812.89
2019-03-06T15:45:53.764Z,98818.90
2019-03-06T15:48:26.734Z,98819.06
2019-03-06T15:50:59.587Z,98824.24
2019-03-06T15:53:31.710Z,98821.89
2019-03-06T15:56:04.699Z,98829.20
2019-03-06T15:58:37.549Z,98833.01
2019-03-06T16:01:11.644Z,98831.91
2019-03-06T16:03:43.918Z,98837.34
2019-03-06T16:06:20.328Z,98828.55
2019-03-06T16:08:50.490Z,98836.39
2019-03-06T16:11:22.528Z,98837.67
2019-03-06T16:13:54.642Z,98834.39
2019-03-06T16:16:26.761Z,98835.09
2019-03-06T16:18:59.102Z,98837.73
2019-03-06T16:21:32.843Z,98840.61
2019-03-06T16:24:05.481Z,98847.41
2019-03-06T16:26:37.795Z,98846.78
2019-03-06T16:29:10.247Z,98851.80
2019-03-06T16:31:42.828Z,98847.16
2019-03-06T16:34:15.924Z,98856.12
2019-03-06T16:36:49.315Z,98841.40
2019-03-06T16:39:21.511Z,98840.61
2019-03-06T16:41:54.152Z,98847.58
2019-03-06T16:44:26.847Z,98847.73
2019-03-06T16:47:06.422Z,98846.35
2019-03-06T16:49:33.474Z,98851.59
2019-03-06T16:52:06.718Z,98853.89
2019-03-06T16:54:40.096Z,98850.16
2019-03-06T16:57:13.334Z,98853.51
2019-03-06T16:59:45.889Z,98860.34
2019-03-06T17:02:19.934Z,98858.95
2019-03-06T17:04:52.684Z,98854.56
2019-03-06T17:07:25.952Z,98862.41
2019-03-06T17:10:00.558Z,98873.05
2019-03-06T17:12:34.617Z,98864.10
2019-03-06T17:15:09.518Z,98873.98
2019-03-06T17:17:43.457Z,98875.23
2019-03-06T17:20:19.985Z,98881.20
2019-03-06T17:22:57.172Z,98881.20
2019-03-06T17:25:30.902Z,98891.18
2019-03-06T17:28:05.303Z,98883.84
2019-03-06T17:30:39.564Z,98894.65
2019-03-06T17:33:15.015Z,98893.02
2019-03-06T17:35:48.467Z,98893.00
2019-03-06T17:38:22.713Z,98895.06
2019-03-06T17:40:56.345Z,98899.84
2019-03-06T17:43:30.593Z,98907.79
2019-03-06T17:46:04.488Z,98919.30
2019-03-06T17:48:38.737Z,98924.75
2019-03-06T17:51:12.491Z,98921.22
2019-03-06T17:53:46.690Z,98923.95
2019-03-06T17:56:20.046Z,98926.33
2019-03-06T17:58:53.584Z,98935.91
2019-03-06T18:01:27.505Z,98925.06
2019-03-06T18:04:19.613Z,98931.72
2019-03-06T18:06:53.538Z,98923.39
2019-03-06T18:09:27.011Z,98928.03
2019-03-06T18:12:00.586Z,98923.39
2019-03-06T18:14:33.703Z,98936.25
2019-03-06T18:17:06.881Z,98945.72
2019-03-06T18:19:39.591Z,98945.93
2019-03-06T18:22:12.905Z,98952.14
2019-03-06T18:24:46.608Z,98945.70
2019-03-06T18:27:26.407Z,98944.03
2019-03-06T18:29:56.120Z,98938.92
2019-03-06T18:32:30.450Z,98937.34
2019-03-06T18:35:04.065Z,98932.23
2019-03-06T18:37:37.143Z,98941.03
2019-03-06T18:40:12.518Z,98937.56
2019-03-06T18:42:49.190Z,98942.56
2019-03-06T18:45:22.960Z,98947.80
2019-03-06T18:47:56.255Z,98947.67
2019-03-06T18:50:29.754Z,98945.60
2019-03-06T18:53:03.320Z,98942.14
2019-03-06T18:55:36.964Z,98940.95
2019-03-06T18:58:10.504Z,98942.72
2019-03-06T19:00:45.029Z,98939.72
2019-03-06T19:03:19.144Z,98939.42
2019-03-06T19:05:52.918Z,98937.39
2019-03-06T19:08:31.279Z,98932.02
2019-03-06T19:11:01.807Z,98921.77
2019-03-06T19:13:36.122Z,98919.66
2019-03-06T19:16:09.832Z,98923.45
2019-03-06T19:18:45.481Z,98916.27
2019-03-06T19:21:18.702Z,98916.19
2019-03-06T19:23:52.431Z,98918.08
2019-03-06T19:26:25.920Z,98909.50
2019-03-06T19:29:05.549Z,98913.25
2019-03-06T19:31:45.661Z,98913.30
2019-03-06T19:34:25.172Z,98910.69
2019-03-06T19:37:17.102Z,98924.69
2019-03-06T19:39:56.146Z,98925.81
2019-03-06T19:42:35.495Z,98917.85
2019-03-06T19:45:11.680Z,98922.02
2019-03-06T19:47:53.364Z,98931.35
2019-03-06T19:50:32.582Z,98932.68
2019-03-06T19:53:09.314Z,98933.13
2019-03-06T19:55:46.834Z,98925.05
2019-03-06T19:58:25.711Z,98919.18
2019-03-06T20:00:59.467Z,98913.53
2019-03-06T20:03:33.029Z,98906.38
2019-03-06T20:06:06.977Z,98898.81
2019-03-06T20:08:40.702Z,98879.31
2019-03-06T20:11:14.074Z,98869.05
2019-03-06T20:13:50.842Z,98871.59
2019-03-06T20:16:27.598Z,98876.62
2019-03-06T20:19:02.344Z,98890.79
2019-03-06T20:21:36.410Z,98897.70
2019-03-06T20:24:09.857Z,98897.80
2019-03-06T20:26:43.427Z,98891.89
2019-03-06T20:29:17.093Z,98897.06
2019-03-06T20:31:50.727Z,98889.30
2019-03-06T20:34:24.788Z,98888.95
2019-03-06T20:36:58.496Z,98887.61
2019-03-06T20:39:32.596Z,98885.17
2019-03-06T20:42:06.127Z,98880.55
2019-03-06T20:44:39.692Z,98888.41
2019-03-06T20:47:13.509Z,98894.31
2019-03-06T20:49:47.063Z,98898.11
2019-03-06T20:52:20.785Z,98899.62
2019-03-06T20:54:54.356Z,98897.47
2019-03-06T20:57:28.151Z,98897.63
2019-03-06T21:00:03.224Z,98903.55
2019-03-06T21:02:36.801Z,98902.91
2019-03-06T21:05:10.248Z,98919.00
2019-03-06T21:07:45.205Z,98918.67
2019-03-06T21:10:19.221Z,98922.23
2019-03-06T21:12:52.566Z,98924.44
2019-03-06T21:15:26.364Z,98914.13
2019-03-06T21:17:59.609Z,98910.41
2019-03-06T21:20:34.055Z,98915.43
2019-03-06T21:23:07.343Z,98917.00
2019-03-06T21:25:41.032Z,98923.63
2019-03-06T21:28:14.586Z,98925.80
2019-03-06T21:30:48.071Z,98923.16
2019-03-06T21:33:22.165Z,98923.01
2019-03-06T21:35:56.764Z,98916.27
2019-03-06T21:38:30.471Z,98915.65
2019-03-06T21:41:03.982Z,98921.77
2019-03-06T21:43:37.286Z,98913.09
2019-03-06T21:46:10.735Z,98909.36
2019-03-06T21:48:43.992Z,98906.89
2019-03-06T21:51:16.903Z,98912.70
2019-03-06T21:53:49.243Z,98908.71
2019-03-06T21:56:24.191Z,98908.13
2019-03-06T21:58:56.101Z,98914.82
2019-03-06T22:01:27.840Z,98905.37
2019-03-06T22:04:00.454Z,98895.06
2019-03-06T22:06:33.216Z,98886.66
2019-03-06T22:09:06.817Z,98889.49
2019-03-06T22:11:38.755Z,98898.80
2019-03-06T22:14:10.705Z,98901.52
2019-03-06T22:16:42.740Z,98897.45
2019-03-06T22:19:14.609Z,98901.19
2019-03-06T22:21:46.694Z,98898.63
2019-03-06T22:24:18.507Z,98900.40
2019-03-06T22:26:50.268Z,98904.77
2019-03-06T22:29:21.987Z,98903.59
2019-03-06T22:31:53.740Z,98902.81
2019-03-06T22:34:25.393Z,98903.82
2019-03-06T22:36:57.289Z,98904.39
2019-03-06T22:39:28.963Z,98892.98
2019-03-06T22:42:01.373Z,98883.96
2019-03-06T22:44:33.279Z,98884.02
2019-03-06T22:47:06.034Z,98885.69
2019-03-06T22:49:38.749Z,98880.71
2019-03-06T22:52:11.698Z,98878.02
2019-03-06T22:54:43.561Z,98869.95
2019-03-06T22:57:16.134Z,98865.78
2019-03-06T22:59:48.648Z,98867.05
2019-03-06T23:02:24.083Z,98865.21
2019-03-06T23:04:56.177Z,98862.12
2019-03-06T23:07:28.483Z,98864.27
2019-03-06T23:10:00.951Z,98852.38
2019-03-06T23:12:33.204Z,98848.71
2019-03-06T23:15:06.740Z,98845.20
2019-03-06T23:17:38.663Z,98845.48
2019-03-06T23:20:11.571Z,98848.88
2019-03-06T23:22:43.235Z,98847.70
2019-03-06T23:25:15.075Z,98855.36
2019-03-06T23:27:46.900Z,98851.56
2019-03-06T23:30:19.345Z,98844.59
2019-03-06T23:32:51.284Z,98843.17
2019-03-06T23:35:23.354Z,98844.53
2019-03-06T23:37:55.079Z,98841.76
2019-03-06T23:40:27.194Z,98831.90
2019-03-06T23:42:58.844Z,98830.24
2019-03-06T23:45:31.059Z,98826.84
2019-03-06T23:48:03.045Z,98825.48
2019-03-06T23:50:34.760Z,98826.72
2019-03-06T23:53:07.875Z,98832.22
2019-03-06T23:55:39.557Z,98838.19
2019-03-06T23:58:11.379Z,98836.29
